Time;durP1;ratioP1;P1;durP2;ratioP2;P2;SDS_P1;SDS_P2;PMS_P1;PMS_P2;Temp;Humidity;BMP_temperature;BMP_pressure;BME280_temperature;BME280_humidity;BME280_pressure;Samples;Min_cycle;Max_cycle;Signal;HPM_P1;HPM_P2
2022/06/03 00:01:15;;;;;;;0.52;0.30;;;10.30;99.90;;;;;;5062232;28;20035;-71
2022/06/03 00:03:56;;;;;;;0.28;0.20;;;10.30;99.90;;;;;;5062658;28;20108;-68
2022/06/03 00:06:40;;;;;;;0.40;0.20;;;10.20;99.90;;;;;;5062868;28;20389;-68
2022/06/03 00:09:36;;;;;;;0.80;0.52;;;10.20;99.90;;;;;;5062692;28;20033;-68
2022/06/03 00:12:23;;;;;;;0.20;0.20;;;10.10;99.90;;;;;;5063636;28;20033;-68
2022/06/03 00:15:07;;;;;;;0.28;0.20;;;10.10;99.90;;;;;;5062395;28;20025;-68
2022/06/03 00:18:03;;;;;;;0.20;0.20;;;10.10;99.90;;;;;;5062811;28;20051;-69
2022/06/03 00:20:50;;;;;;;0.32;0.20;;;10.10;99.90;;;;;;5063734;28;20052;-68
2022/06/03 00:23:51;;;;;;;0.22;0.20;;;10.10;99.90;;;;;;5061959;28;20044;-68
2022/06/03 00:26:41;;;;;;;0.77;0.30;;;10.00;99.90;;;;;;5062385;28;20036;-68
2022/06/03 00:29:13;;;;;;;0.77;0.38;;;10.00;99.90;;;;;;5063610;28;20053;-68
2022/06/03 00:31:57;;;;;;;0.90;0.30;;;10.10;99.90;;;;;;5061718;28;20033;-68
2022/06/03 00:34:52;;;;;;;0.57;0.30;;;10.00;99.90;;;;;;5063242;28;20025;-68
2022/06/03 00:37:34;;;;;;;0.30;0.22;;;10.00;99.90;;;;;;5063598;28;20480;-68
2022/06/03 00:40:00;;;;;;;0.20;0.20;;;10.00;99.90;;;;;;5061637;28;20029;-68
2022/06/03 00:42:49;;;;;;;0.73;0.30;;;10.00;99.90;;;;;;5063088;28;20039;-69
2022/06/03 00:45:24;;;;;;;0.40;0.30;;;9.90;99.90;;;;;;5063073;28;20124;-68
2022/06/03 00:47:54;;;;;;;0.70;0.30;;;9.90;99.90;;;;;;5061221;28;20024;-69
2022/06/03 00:50:37;;;;;;;0.50;0.30;;;9.90;99.90;;;;;;5063342;28;20025;-68
2022/06/03 00:53:31;;;;;;;0.70;0.30;;;9.90;99.90;;;;;;5059954;28;20036;-68
2022/06/03 00:56:16;;;;;;;0.70;0.30;;;9.80;99.90;;;;;;5062744;28;20028;-68
2022/06/03 00:58:50;;;;;;;0.57;0.30;;;9.80;99.90;;;;;;5063329;28;20049;-68
2022/06/03 01:01:30;;;;;;;0.60;0.30;;;9.80;99.90;;;;;;5061359;28;20094;-68
2022/06/03 01:04:15;;;;;;;0.50;0.30;;;9.70;99.90;;;;;;5063105;28;20120;-69
2022/06/03 01:06:59;;;;;;;0.77;0.30;;;9.60;99.90;;;;;;5062727;28;20032;-68
2022/06/03 01:09:28;;;;;;;0.68;0.30;;;9.50;99.90;;;;;;5061315;28;20028;-68
2022/06/03 01:12:19;;;;;;;0.85;0.30;;;9.50;99.90;;;;;;5062605;28;20020;-68
2022/06/03 01:14:58;;;;;;;0.32;0.20;;;9.40;99.90;;;;;;5061344;28;20025;-68
2022/06/03 01:17:51;;;;;;;0.45;0.28;;;9.40;99.90;;;;;;5060671;28;20021;-68
2022/06/03 01:20:29;;;;;;;0.52;0.30;;;9.40;99.90;;;;;;5061283;28;20049;-69
2022/06/03 01:23:13;;;;;;;0.22;0.20;;;9.40;99.90;;;;;;5060930;28;20086;-68
2022/06/03 01:25:42;;;;;;;0.47;0.30;;;9.40;99.90;;;;;;5061087;28;20029;-68
2022/06/03 01:28:28;;;;;;;0.25;0.20;;;9.40;99.90;;;;;;5062178;28;20028;-67
2022/06/03 01:31:40;;;;;;;0.47;0.30;;;9.30;99.90;;;;;;5060736;28;20029;-68
2022/06/03 01:34:36;;;;;;;0.85;0.30;;;9.30;99.90;;;;;;5059285;28;20068;-68
2022/06/03 01:37:05;;;;;;;0.57;0.30;;;9.30;99.90;;;;;;5062504;28;20025;-68
2022/06/03 01:39:54;;;;;;;0.98;0.32;;;9.30;99.90;;;;;;5060590;28;20511;-68
2022/06/03 01:43:03;;;;;;;0.47;0.30;;;9.30;99.90;;;;;;5060558;28;20040;-68
2022/06/03 01:45:57;;;;;;;0.47;0.22;;;9.30;99.90;;;;;;5062335;28;20136;-68
2022/06/03 01:48:47;;;;;;;0.20;0.20;;;9.30;99.90;;;;;;5059133;28;20021;-68
2022/06/03 01:51:37;;;;;;;1.13;0.57;;;9.30;99.90;;;;;;5062224;28;20045;-68
2022/06/03 01:54:18;;;;;;;1.17;0.45;;;9.30;99.90;;;;;;5062108;28;20060;-68
2022/06/03 01:57:02;;;;;;;0.80;0.30;;;9.30;99.90;;;;;;5060562;28;20052;-69
2022/06/03 01:59:46;;;;;;;0.20;0.20;;;9.30;99.90;;;;;;5065285;28;20033;-68
2022/06/03 02:02:34;;;;;;;0.75;0.30;;;9.20;99.90;;;;;;5064003;28;20041;-68
2022/06/03 02:05:21;;;;;;;0.50;0.28;;;9.20;99.90;;;;;;5064586;28;20029;-68
2022/06/03 02:08:14;;;;;;;0.38;0.30;;;9.20;99.90;;;;;;5066165;28;20031;-69
2022/06/03 02:10:59;;;;;;;1.00;0.82;;;9.20;99.90;;;;;;5064692;28;20029;-68
2022/06/03 02:13:43;;;;;;;0.50;0.30;;;9.20;99.90;;;;;;5064717;28;20025;-68
2022/06/03 02:16:21;;;;;;;1.55;0.40;;;9.10;99.90;;;;;;5066183;28;20373;-69
2022/06/03 02:19:19;;;;;;;0.98;0.30;;;9.10;99.90;;;;;;5064416;28;20091;-68
2022/06/03 02:22:13;;;;;;;1.00;0.32;;;9.10;99.90;;;;;;5063546;28;20048;-68
2022/06/03 02:25:10;;;;;;;0.45;0.40;;;9.10;99.90;;;;;;5062871;28;20041;-68
2022/06/03 02:28:07;;;;;;;0.50;0.30;;;9.10;99.90;;;;;;5064548;28;20154;-68
2022/06/03 02:30:49;;;;;;;0.20;0.20;;;9.00;99.90;;;;;;5064475;28;20045;-68
2022/06/03 02:33:27;;;;;;;2.00;0.63;;;9.00;99.90;;;;;;5065889;28;20088;-68
2022/06/03 02:36:11;;;;;;;0.35;0.22;;;9.00;99.90;;;;;;5063960;28;20029;-68
2022/06/03 02:39:04;;;;;;;0.73;0.30;;;8.90;99.90;;;;;;5065321;28;20025;-68
2022/06/03 02:41:44;;;;;;;0.43;0.30;;;8.90;99.90;;;;;;5065283;28;20033;-68
2022/06/03 02:44:17;;;;;;;1.17;0.40;;;8.80;99.90;;;;;;5063757;28;20029;-68
2022/06/03 02:46:59;;;;;;;0.82;0.38;;;8.80;99.90;;;;;;5065679;28;20092;-68
2022/06/03 02:49:25;;;;;;;;;;;8.80;99.90;;;;;;5065539;28;20104;-68
2022/06/03 02:52:12;;;;;;;0.20;0.20;;;8.90;99.90;;;;;;5064189;28;19912;-68
2022/06/03 02:54:50;;;;;;;0.65;0.30;;;8.90;99.90;;;;;;5065426;28;20334;-68
2022/06/03 02:57:43;;;;;;;2.13;1.02;;;8.90;99.90;;;;;;5063578;28;20031;-68
2022/06/03 03:00:38;;;;;;;1.55;0.77;;;8.80;99.90;;;;;;5064554;28;20059;-68
2022/06/03 03:03:22;;;;;;;0.90;0.30;;;8.80;99.90;;;;;;5061983;28;20114;-67
2022/06/03 03:06:23;;;;;;;0.40;0.30;;;8.80;99.90;;;;;;5063340;28;20106;-67
2022/06/03 03:08:51;;;;;;;0.73;0.50;;;8.90;99.90;;;;;;5045490;28;20037;-67
2022/06/03 03:11:41;;;;;;;1.00;0.40;;;8.80;99.90;;;;;;5064026;28;20033;-67
2022/06/03 03:14:30;;;;;;;0.98;0.30;;;8.90;99.90;;;;;;5063106;28;20029;-67
2022/06/03 03:16:56;;;;;;;1.08;0.30;;;8.90;99.90;;;;;;5064983;28;20017;-68
2022/06/03 03:19:40;;;;;;;1.08;0.40;;;8.90;99.90;;;;;;5064416;28;20469;-68
2022/06/03 03:22:17;;;;;;;0.40;0.25;;;8.90;99.90;;;;;;5063281;28;20049;-69
2022/06/03 03:24:55;;;;;;;1.38;0.50;;;8.80;99.90;;;;;;5063415;28;20049;-67
2022/06/03 03:27:58;;;;;;;0.30;0.30;;;8.90;99.90;;;;;;5063192;28;20025;-68
2022/06/03 03:30:36;;;;;;;0.68;0.30;;;8.90;99.90;;;;;;5063458;28;20032;-68
2022/06/03 03:33:10;;;;;;;0.93;0.40;;;8.90;99.90;;;;;;5064751;28;20134;-67
2022/06/03 03:36:03;;;;;;;1.52;0.50;;;8.90;99.90;;;;;;5062778;28;20158;-67
2022/06/03 03:38:52;;;;;;;0.80;0.30;;;9.00;99.90;;;;;;5064401;28;20074;-67
2022/06/03 03:41:55;;;;;;;1.45;0.52;;;9.00;99.90;;;;;;5063877;28;20041;-68
2022/06/03 03:44:40;;;;;;;1.35;0.68;;;9.00;99.90;;;;;;5062770;28;20031;-69
2022/06/03 03:47:43;;;;;;;0.82;0.30;;;9.00;99.90;;;;;;5062805;28;20037;-69
2022/06/03 03:50:30;;;;;;;2.20;1.33;;;9.10;99.90;;;;;;5064447;28;20021;-69
2022/06/03 03:53:43;;;;;;;0.70;0.63;;;9.20;99.90;;;;;;5062669;28;20029;-69
2022/06/03 03:56:17;;;;;;;0.75;0.30;;;9.20;99.90;;;;;;5063101;28;20035;-69
2022/06/03 03:59:01;;;;;;;1.27;0.43;;;9.20;99.90;;;;;;5064257;28;20075;-69
2022/06/03 04:01:44;;;;;;;1.35;0.60;;;9.30;99.90;;;;;;5062247;28;20079;-69
2022/06/03 04:04:18;;;;;;;0.52;0.30;;;9.30;99.90;;;;;;5063815;28;20025;-70
2022/06/03 04:07:12;;;;;;;0.90;0.65;;;9.30;99.90;;;;;;5063964;28;20033;-70
2022/06/03 04:09:59;;;;;;;1.30;0.50;;;9.30;99.90;;;;;;5062233;28;20029;-69
2022/06/03 04:12:33;;;;;;;1.80;0.70;;;9.30;99.90;;;;;;5063452;28;20033;-67
2022/06/03 04:15:18;;;;;;;0.60;0.32;;;9.30;99.90;;;;;;5063132;28;20028;-69
2022/06/03 04:18:17;;;;;;;1.00;0.43;;;9.40;99.90;;;;;;5062200;28;20392;-66
2022/06/03 04:21:00;;;;;;;0.90;0.50;;;9.40;99.90;;;;;;5063471;28;20055;-67
2022/06/03 04:23:45;;;;;;;1.02;0.35;;;9.50;99.90;;;;;;5062215;28;20456;-68
2022/06/03 04:26:22;;;;;;;1.63;0.40;;;9.50;99.90;;;;;;5062193;28;20091;-67
2022/06/03 04:29:36;;;;;;;0.50;0.30;;;9.60;99.90;;;;;;5063735;28;20457;-67
2022/06/03 04:32:04;;;;;;;0.90;0.30;;;9.60;99.90;;;;;;5062565;28;20025;-67
2022/06/03 04:34:49;;;;;;;0.80;0.30;;;9.60;99.90;;;;;;5062522;28;20036;-68
2022/06/03 04:37:36;;;;;;;0.77;0.40;;;9.70;99.90;;;;;;5063526;28;20032;-68
2022/06/03 04:40:26;;;;;;;0.40;0.30;;;9.80;99.90;;;;;;5061580;28;20105;-67
2022/06/03 04:43:23;;;;;;;1.05;0.40;;;9.80;99.90;;;;;;5062437;28;20044;-67
2022/06/03 04:46:04;;;;;;;0.68;0.30;;;9.90;99.90;;;;;;5061750;28;20515;-67
2022/06/03 04:48:54;;;;;;;1.25;0.77;;;10.00;99.90;;;;;;5061429;28;20021;-67
2022/06/03 04:51:47;;;;;;;1.27;0.95;;;10.10;99.90;;;;;;5062879;28;20033;-68
2022/06/03 04:54:25;;;;;;;1.38;0.60;;;10.10;99.90;;;;;;5063256;28;20037;-67
2022/06/03 04:57:27;;;;;;;0.95;0.40;;;10.20;99.90;;;;;;5061248;28;20099;-66
2022/06/03 05:00:13;;;;;;;0.45;0.25;;;10.30;99.90;;;;;;5062996;28;20285;-69
2022/06/03 05:03:17;;;;;;;2.17;0.50;;;10.40;99.90;;;;;;5063118;28;20041;-68
2022/06/03 05:05:51;;;;;;;0.60;0.38;;;10.40;99.90;;;;;;5061292;28;20036;-68
2022/06/03 05:08:35;;;;;;;0.47;0.30;;;10.50;99.90;;;;;;5062794;28;20056;-68
2022/06/03 05:11:25;;;;;;;0.93;0.40;;;10.60;99.90;;;;;;5060666;28;20370;-68
2022/06/03 05:14:09;;;;;;;0.55;0.30;;;10.70;99.90;;;;;;5060971;28;20055;-68
2022/06/03 05:16:35;;;;;;;0.45;0.30;;;10.80;99.90;;;;;;5061507;28;20021;-68
2022/06/03 05:19:00;;;;;;;1.90;0.57;;;10.90;99.90;;;;;;5061363;28;20040;-69
2022/06/03 05:21:44;;;;;;;1.25;0.65;;;11.10;99.90;;;;;;5061999;28;20071;-70
2022/06/03 05:24:28;;;;;;;1.30;0.52;;;11.20;99.90;;;;;;5062770;28;20032;-69
2022/06/03 05:27:02;;;;;;;2.83;0.65;;;11.30;99.90;;;;;;5060882;28;20021;-69
2022/06/03 05:29:55;;;;;;;1.20;0.45;;;11.50;99.90;;;;;;5062693;28;20036;-70
2022/06/03 05:32:49;;;;;;;0.80;0.40;;;11.60;99.90;;;;;;5062375;28;20025;-68
2022/06/03 05:35:14;;;;;;;0.70;0.32;;;11.80;99.90;;;;;;5060661;28;20025;-68
2022/06/03 05:38:15;;;;;;;0.52;0.20;;;12.00;99.90;;;;;;5063068;28;20032;-68
2022/06/03 05:44:50;;;;;;;0.30;0.20;;;12.50;99.90;;;;;;5038277;28;20041;-67
2022/06/03 05:47:22;;;;;;;0.85;0.30;;;12.70;99.90;;;;;;5061946;28;20029;-67
2022/06/03 05:50:33;;;;;;;2.20;0.82;;;12.90;99.90;;;;;;5065450;28;20021;-68
2022/06/03 05:53:27;;;;;;;1.08;0.63;;;13.20;99.90;;;;;;5062167;28;20037;-68
2022/06/03 05:56:20;;;;;;;1.38;0.65;;;13.40;99.90;;;;;;5064041;28;20029;-68
2022/06/03 05:59:05;;;;;;;0.13;0.13;;;13.70;99.90;;;;;;5064866;28;20025;-68
2022/06/03 06:02:14;;;;;;;0.57;0.20;;;14.10;99.90;;;;;;5062681;28;20072;-69
2022/06/03 06:04:52;;;;;;;0.17;0.13;;;14.40;99.90;;;;;;5040873;28;20561;-69
2022/06/03 06:07:17;;;;;;;1.02;0.43;;;14.90;99.90;;;;;;5040596;28;20033;-68
2022/06/03 06:10:08;;;;;;;0.45;0.20;;;14.90;99.90;;;;;;5042082;28;20394;-69
2022/06/03 06:12:43;;;;;;;0.95;0.30;;;15.10;99.90;;;;;;5061886;28;20035;-68
2022/06/03 06:15:27;;;;;;;0.10;0.10;;;15.30;99.90;;;;;;5061866;28;20032;-68
2022/06/03 06:18:20;;;;;;;0.15;0.10;;;15.50;99.90;;;;;;5060473;28;20036;-69
2022/06/03 06:20:51;;;;;;;0.75;0.25;;;15.60;99.90;;;;;;5062006;28;20053;-69
2022/06/03 06:23:23;;;;;;;0.63;0.20;;;15.60;99.90;;;;;;5060898;28;20037;-68
2022/06/03 06:26:32;;;;;;;0.82;0.20;;;15.90;99.90;;;;;;5061206;28;20021;-68
2022/06/03 06:29:30;;;;;;;0.85;0.43;;;16.40;99.90;;;;;;5062140;28;20025;-69
2022/06/03 06:32:34;;;;;;;0.17;0.10;;;16.40;99.90;;;;;;5051435;28;20045;-68
2022/06/03 06:35:31;;;;;;;0.30;0.10;;;16.80;99.90;;;;;;5057802;28;20033;-69
2022/06/03 06:38:37;;;;;;;0.38;0.20;;;16.90;99.90;;;;;;5062053;28;20548;-69
2022/06/03 06:41:31;;;;;;;0.70;0.20;;;17.00;99.90;;;;;;5043575;28;20037;-67
2022/06/03 06:44:19;;;;;;;0.30;0.10;;;17.10;99.90;;;;;;5058644;28;20082;-67
2022/06/03 06:47:09;;;;;;;0.57;0.20;;;17.40;99.90;;;;;;5064850;28;20028;-70
2022/06/03 06:49:45;;;;;;;0.35;0.10;;;17.70;99.90;;;;;;5065306;28;20017;-69
2022/06/03 06:52:35;;;;;;;0.17;0.10;;;18.20;99.90;;;;;;5063717;28;20043;-69
2022/06/03 06:55:09;;;;;;;0.20;0.10;;;18.40;99.90;;;;;;5065403;28;20029;-69
2022/06/03 06:58:01;;;;;;;0.10;0.10;;;18.50;99.90;;;;;;5063941;28;20424;-69
2022/06/03 07:00:26;;;;;;;;;;;18.70;99.90;;;;;;5064359;28;20036;-70
2022/06/03 07:03:41;;;;;;;0.17;0.10;;;19.20;99.90;;;;;;5065186;28;19913;-70
2022/06/03 07:06:25;;;;;;;0.55;0.20;;;19.20;99.90;;;;;;5062073;28;20045;-68
2022/06/03 07:09:10;;;;;;;0.28;0.10;;;19.20;99.90;;;;;;5064027;28;20021;-68
2022/06/03 07:11:53;;;;;;;0.10;0.10;;;19.50;99.90;;;;;;5064755;28;20021;-68
2022/06/03 07:14:26;;;;;;;0.60;0.38;;;19.20;99.90;;;;;;5062013;28;20025;-68
2022/06/03 07:20:02;;;;;;;0.38;0.20;;;19.70;99.90;;;;;;5065163;28;20127;-68
2022/06/03 07:22:50;;;;;;;0.10;0.10;;;20.00;99.90;;;;;;5062925;28;20045;-69
2022/06/03 07:25:24;;;;;;;0.63;0.55;;;20.00;99.90;;;;;;5064869;28;20037;-69
2022/06/03 07:27:59;;;;;;;0.47;0.20;;;19.90;99.10;;;;;;5064358;28;20123;-69
2022/06/03 07:30:56;;;;;;;0.20;0.20;;;19.90;99.90;;;;;;5063105;28;20260;-69
2022/06/03 07:33:31;;;;;;;0.17;0.10;;;20.00;99.90;;;;;;5064669;28;20025;-68
2022/06/03 07:35:59;;;;;;;0.80;0.70;;;20.60;99.90;;;;;;5062861;28;20051;-70
2022/06/03 07:38:40;;;;;;;0.10;0.10;;;20.00;94.80;;;;;;5063009;28;20060;-69
2022/06/03 07:41:29;;;;;;;;;;;20.20;99.90;;;;;;5064372;28;20032;-70
2022/06/03 07:44:10;;;;;;;1.27;0.50;;;20.70;99.90;;;;;;5056751;28;20375;-68
2022/06/03 07:46:41;;;;;;;0.20;0.20;;;20.70;94.60;;;;;;5064402;28;20092;-68
2022/06/03 07:49:08;;;;;;;0.20;0.10;;;21.00;95.50;;;;;;5063478;28;20025;-69
2022/06/03 07:51:38;;;;;;;0.52;0.40;;;21.20;99.90;;;;;;5063364;28;20489;-68
2022/06/03 07:54:06;;;;;;;0.10;0.10;;;21.40;99.60;;;;;;5064487;28;20024;-68
2022/06/03 07:56:34;;;;;;;0.10;0.10;;;21.50;99.40;;;;;;5062055;28;20048;-68
2022/06/03 07:59:13;;;;;;;0.10;0.10;;;21.30;95.50;;;;;;5064226;28;20148;-69
2022/06/03 08:01:43;;;;;;;0.10;0.10;;;21.60;96.40;;;;;;5062349;28;20120;-69
2022/06/03 08:04:33;;;;;;;0.47;0.30;;;21.50;98.00;;;;;;5063599;28;20465;-69
2022/06/03 08:12:36;;;;;;;0.20;0.10;;;21.50;93.10;;;;;;5063586;28;20047;-69
2022/06/03 08:15:17;;;;;;;0.10;0.10;;;21.50;99.80;;;;;;5063516;28;20075;-69
2022/06/03 08:17:46;;;;;;;0.10;0.10;;;22.40;99.70;;;;;;5062322;28;20029;-69
2022/06/03 08:20:14;;;;;;;1.02;0.43;;;22.80;92.50;;;;;;5063626;28;20276;-68
2022/06/03 08:22:41;;;;;;;0.10;0.10;;;23.30;87.40;;;;;;5061821;28;20041;-68
2022/06/03 08:25:08;;;;;;;0.10;0.10;;;23.30;69.20;;;;;;5063768;28;20048;-69
2022/06/03 08:27:35;;;;;;;0.17;0.10;;;23.10;90.00;;;;;;5062406;28;20029;-70
2022/06/03 08:30:10;;;;;;;0.08;0.00;;;23.20;71.40;;;;;;5062912;28;20021;-69
2022/06/03 08:32:40;;;;;;;0.10;0.10;;;23.10;68.60;;;;;;5063639;28;20025;-69
2022/06/03 08:35:19;;;;;;;0.40;0.20;;;23.90;79.60;;;;;;5061433;28;20064;-69
2022/06/03 08:38:10;;;;;;;0.10;0.10;;;24.10;77.40;;;;;;5063638;28;20028;-68
2022/06/03 08:41:08;;;;;;;0.25;0.10;;;23.70;72.70;;;;;;5062639;28;20025;-68
2022/06/03 08:43:55;;;;;;;0.40;0.25;;;23.90;66.10;;;;;;5058309;28;20048;-69
2022/06/03 08:46:28;;;;;;;0.25;0.13;;;23.60;62.60;;;;;;5063648;28;20056;-70
2022/06/03 08:49:03;;;;;;;0.10;0.10;;;23.20;66.30;;;;;;5062024;28;20025;-69
2022/06/03 08:51:45;;;;;;;0.10;0.10;;;24.00;67.80;;;;;;5060935;28;20099;-69
2022/06/03 08:54:29;;;;;;;0.10;0.10;;;23.50;63.10;;;;;;5063094;28;20017;-69
2022/06/03 08:57:12;;;;;;;0.20;0.10;;;22.90;63.20;;;;;;5061414;28;20040;-69
2022/06/03 08:59:42;;;;;;;0.60;0.45;;;22.90;68.60;;;;;;5062942;28;20021;-69
2022/06/03 09:02:14;;;;;;;0.77;0.35;;;22.90;65.90;;;;;;5062658;28;20044;-68
2022/06/03 09:04:47;;;;;;;;;;;23.70;71.50;;;;;;5062184;28;20025;-69
2022/06/03 09:07:38;;;;;;;0.20;0.20;;;24.30;70.80;;;;;;5063060;28;19905;-70
2022/06/03 09:10:24;;;;;;;0.32;0.10;;;23.20;61.30;;;;;;5061183;28;20032;-68
2022/06/03 09:13:12;;;;;;;0.10;0.10;;;23.30;60.20;;;;;;5061623;28;20056;-69
2022/06/03 09:15:43;;;;;;;0.17;0.15;;;23.90;63.20;;;;;;5063023;28;20025;-69
2022/06/03 09:18:22;;;;;;;0.30;0.30;;;23.80;67.50;;;;;;5061078;28;20096;-68
2022/06/03 09:20:52;;;;;;;0.10;0.10;;;23.70;61.80;;;;;;5062465;28;20106;-69
2022/06/03 09:23:20;;;;;;;1.08;0.65;;;23.40;62.90;;;;;;5061534;28;20044;-69
2022/06/03 09:25:52;;;;;;;0.52;0.20;;;23.30;61.30;;;;;;5061791;28;20029;-69
2022/06/03 09:28:24;;;;;;;0.60;0.30;;;23.20;59.40;;;;;;5062785;28;20342;-69
2022/06/03 09:30:50;;;;;;;0.28;0.13;;;23.80;69.30;;;;;;5060746;28;20025;-69
2022/06/03 09:33:19;;;;;;;0.10;0.10;;;23.60;57.90;;;;;;5062735;28;20017;-69
2022/06/03 09:35:47;;;;;;;0.10;0.08;;;23.30;59.00;;;;;;5060812;28;20021;-69
2022/06/03 09:38:16;;;;;;;0.10;0.10;;;23.40;57.60;;;;;;5062422;28;20112;-69
2022/06/03 09:40:45;;;;;;;0.98;0.57;;;23.10;57.80;;;;;;5060816;28;20087;-69
2022/06/03 09:43:40;;;;;;;0.77;0.32;;;23.30;61.80;;;;;;5060520;28;20040;-69
2022/06/03 09:46:11;;;;;;;0.00;0.00;;;23.30;60.00;;;;;;5061978;28;20533;-70
2022/06/03 09:48:38;;;;;;;0.10;0.10;;;24.00;57.90;;;;;;5060774;28;20029;-70
2022/06/03 09:51:13;;;;;;;0.10;0.10;;;23.60;55.20;;;;;;5062473;28;20033;-69
2022/06/03 09:53:42;;;;;;;0.00;0.00;;;23.80;55.40;;;;;;5062106;28;20392;-70
2022/06/03 09:56:21;;;;;;;0.55;0.52;;;24.40;56.30;;;;;;5060827;28;20080;-70
2022/06/03 09:58:49;;;;;;;0.10;0.10;;;25.10;56.30;;;;;;5062508;28;20021;-70
2022/06/03 10:01:15;;;;;;;0.22;0.20;;;25.50;56.90;;;;;;5059222;28;20049;-70
2022/06/03 10:03:42;;;;;;;0.17;0.10;;;25.80;55.40;;;;;;5062391;28;20473;-70
2022/06/03 10:06:43;;;;;;;0.10;0.10;;;26.00;55.00;;;;;;5061267;28;20044;-70
2022/06/03 10:14:21;;;;;;;0.30;0.20;;;26.60;52.30;;;;;;5060844;28;20043;-69
2022/06/03 10:16:47;;;;;;;0.00;0.00;;;26.40;52.20;;;;;;5062033;28;20127;-70
2022/06/03 10:19:13;;;;;;;0.00;0.00;;;26.30;51.70;;;;;;5061699;28;20029;-71
2022/06/03 10:21:54;;;;;;;0.10;0.10;;;26.60;50.20;;;;;;5063583;28;20060;-70
2022/06/03 10:24:23;;;;;;;0.20;0.05;;;25.70;49.20;;;;;;5064681;28;20033;-69
2022/06/03 10:26:52;;;;;;;0.00;0.00;;;26.20;50.40;;;;;;5063982;28;20565;-70
2022/06/03 10:29:22;;;;;;;0.00;0.00;;;26.00;50.30;;;;;;5065923;28;20025;-69
2022/06/03 10:31:50;;;;;;;;;;;25.20;50.20;;;;;;5065238;28;20021;-70
2022/06/03 10:34:22;;;;;;;0.00;0.00;;;25.40;48.90;;;;;;5064957;28;19916;-70
2022/06/03 10:36:49;;;;;;;0.00;0.00;;;26.00;53.20;;;;;;5065873;28;20125;-69
2022/06/03 10:39:19;;;;;;;0.28;0.10;;;26.20;49.70;;;;;;5062540;28;20029;-70
2022/06/03 10:41:48;;;;;;;0.00;0.00;;;26.00;48.50;;;;;;5065350;28;20029;-69
2022/06/03 10:44:18;;;;;;;0.00;0.00;;;26.00;49.80;;;;;;5064033;28;20063;-69
2022/06/03 10:47:02;;;;;;;;;;;26.70;51.40;;;;;;5065940;28;20021;-70
2022/06/03 10:49:30;;;;;;;0.00;0.00;;;26.60;49.10;;;;;;5065328;28;19908;-69
2022/06/03 11:03:20;;;;;;;0.05;0.05;;;27.00;52.80;;;;;;5053903;28;20056;-70
2022/06/03 11:05:47;;;;;;;0.00;0.00;;;27.60;50.70;;;;;;5063648;28;20028;-71
2022/06/03 11:08:13;;;;;;;0.55;0.25;;;26.20;48.60;;;;;;5064949;28;20488;-70
2022/06/03 11:10:56;;;;;;;1.45;0.47;;;26.10;47.00;;;;;;5063253;28;20027;-70
2022/06/03 11:13:38;;;;;;;0.03;0.00;;;26.70;47.20;;;;;;5063131;28;20040;-71
2022/06/03 11:16:22;;;;;;;0.00;0.00;;;27.40;50.30;;;;;;5065174;28;20057;-70
2022/06/03 11:18:48;;;;;;;0.28;0.22;;;28.00;46.90;;;;;;5063458;28;20575;-72
2022/06/03 11:21:24;;;;;;;0.00;0.00;;;27.00;45.00;;;;;;5064431;28;20077;-71
2022/06/03 11:23:51;;;;;;;0.13;0.10;;;26.90;46.20;;;;;;5064688;28;20032;-71
2022/06/03 11:26:17;;;;;;;0.10;0.10;;;26.80;47.20;;;;;;5063043;28;20033;-71
2022/06/03 11:28:56;;;;;;;0.17;0.10;;;26.60;47.20;;;;;;5063395;28;20025;-71
2022/06/03 11:31:24;;;;;;;0.17;0.10;;;26.50;46.40;;;;;;5062441;28;20443;-71
2022/06/03 11:34:01;;;;;;;0.00;0.00;;;25.70;47.40;;;;;;5064549;28;20028;-71
2022/06/03 11:36:40;;;;;;;0.00;0.00;;;26.00;45.80;;;;;;5064305;28;20033;-71
2022/06/03 11:39:21;;;;;;;0.20;0.10;;;26.60;48.70;;;;;;5061895;28;20495;-71
2022/06/03 11:41:48;;;;;;;;;;;26.40;46.60;;;;;;5064733;28;20040;-72
2022/06/03 11:44:19;;;;;;;0.43;0.43;;;25.70;47.60;;;;;;5062785;28;19905;-72
2022/06/03 11:46:57;;;;;;;0.10;0.10;;;27.30;51.50;;;;;;5062933;28;20083;-71
2022/06/03 11:49:24;;;;;;;0.10;0.03;;;26.20;50.60;;;;;;5064147;28;20210;-71
2022/06/03 11:51:50;;;;;;;0.17;0.10;;;27.00;50.30;;;;;;5061522;28;20052;-71
2022/06/03 11:54:21;;;;;;;0.30;0.20;;;26.70;43.90;;;;;;5064241;28;20137;-71
2022/06/03 11:56:49;;;;;;;0.08;0.03;;;26.90;45.50;;;;;;5062367;28;20052;-71
2022/06/03 11:59:23;;;;;;;0.08;0.00;;;27.30;47.50;;;;;;5064245;28;20033;-71
2022/06/03 12:01:56;;;;;;;0.10;0.10;;;26.50;43.70;;;;;;5063186;28;20029;-70
2022/06/03 12:04:34;;;;;;;0.10;0.10;;;25.70;44.50;;;;;;5061651;28;20024;-69
2022/06/03 12:07:24;;;;;;;0.00;0.00;;;26.40;47.40;;;;;;5064248;28;20037;-70
2022/06/03 12:09:56;;;;;;;0.00;0.00;;;27.20;48.90;;;;;;5062372;28;20067;-70
2022/06/03 12:15:29;;;;;;;0.10;0.10;;;26.50;48.00;;;;;;5064045;28;20087;-70
2022/06/03 12:17:56;;;;;;;0.00;0.00;;;25.90;45.30;;;;;;5061967;28;20040;-70
2022/06/03 12:20:31;;;;;;;0.17;0.00;;;26.50;46.60;;;;;;5063837;28;20025;-70
2022/06/03 12:23:17;;;;;;;0.10;0.10;;;26.60;45.50;;;;;;5062104;28;20459;-70
2022/06/03 12:25:48;;;;;;;0.10;0.10;;;27.00;46.00;;;;;;5051401;28;20025;-70
2022/06/03 12:28:20;;;;;;;0.00;0.00;;;26.40;46.40;;;;;;5063707;28;20084;-71
2022/06/03 12:31:11;;;;;;;0.10;0.10;;;26.80;46.60;;;;;;5061620;28;20040;-71
2022/06/03 12:34:06;;;;;;;0.25;0.10;;;26.80;46.70;;;;;;5059324;28;20103;-70
2022/06/03 12:36:52;;;;;;;0.00;0.00;;;26.10;45.00;;;;;;5063278;28;20024;-70
2022/06/03 12:39:18;;;;;;;0.03;0.03;;;27.00;48.00;;;;;;5061792;28;20170;-70
2022/06/03 12:41:46;;;;;;;0.00;0.00;;;26.20;45.30;;;;;;5061551;28;20028;-70
2022/06/03 12:44:50;;;;;;;0.10;0.10;;;26.90;45.70;;;;;;5060815;28;20021;-71
2022/06/03 12:47:31;;;;;;;3.78;1.77;;;26.80;45.80;;;;;;5062127;28;20086;-70
2022/06/03 12:50:43;;;;;;;0.05;0.05;;;26.30;46.20;;;;;;5063316;28;20056;-70
2022/06/03 12:53:35;;;;;;;0.00;0.00;;;26.60;45.20;;;;;;5053612;28;20056;-70
2022/06/03 12:56:04;;;;;;;0.00;0.00;;;26.90;45.70;;;;;;5061702;28;20017;-70
2022/06/03 12:58:36;;;;;;;0.10;0.10;;;27.00;47.30;;;;;;5063215;28;20026;-70
2022/06/03 13:01:05;;;;;;;0.00;0.00;;;26.90;44.20;;;;;;5061115;28;20044;-71
2022/06/03 13:03:34;;;;;;;0.00;0.00;;;27.10;44.40;;;;;;5063232;28;20097;-71
2022/06/03 13:06:05;;;;;;;0.00;0.00;;;27.50;47.60;;;;;;5061842;28;20087;-71
2022/06/03 13:08:33;;;;;;;0.00;0.00;;;27.60;44.30;;;;;;5062428;28;20422;-71
2022/06/03 13:10:59;;;;;;;0.20;0.10;;;26.30;43.60;;;;;;5062908;28;20032;-71
2022/06/03 13:13:29;;;;;;;0.20;0.10;;;26.20;45.40;;;;;;5060703;28;20045;-71
2022/06/03 13:16:19;;;;;;;0.22;0.20;;;26.40;46.10;;;;;;5062975;28;20040;-71
2022/06/03 13:18:55;;;;;;;;;;;26.20;44.90;;;;;;5061727;28;20473;-71
2022/06/03 13:21:28;;;;;;;0.15;0.05;;;25.50;44.80;;;;;;5060326;28;19962;-72
2022/06/03 13:23:58;;;;;;;0.00;0.00;;;26.10;44.20;;;;;;5063005;28;20036;-71
2022/06/03 13:26:25;;;;;;;0.20;0.20;;;25.90;42.30;;;;;;5060922;28;20452;-70
2022/06/03 13:29:02;;;;;;;0.90;0.30;;;25.70;45.90;;;;;;5063738;28;20719;-72
2022/06/03 13:31:40;;;;;;;0.43;0.35;;;25.30;44.00;;;;;;5064017;28;20059;-71
2022/06/03 13:34:10;;;;;;;0.00;0.00;;;26.20;45.60;;;;;;5065508;28;20036;-71
2022/06/03 13:36:43;;;;;;;0.63;0.20;;;26.40;47.20;;;;;;5065163;28;20091;-71
2022/06/03 13:39:23;;;;;;;0.10;0.10;;;25.90;46.80;;;;;;5061827;28;20025;-72
2022/06/03 13:44:53;;;;;;;0.10;0.10;;;26.50;46.80;;;;;;5061812;28;20044;-71
2022/06/03 13:47:18;;;;;;;0.10;0.10;;;27.00;45.60;;;;;;5061184;28;20078;-71
2022/06/03 13:50:03;;;;;;;0.20;0.10;;;26.50;45.30;;;;;;5062505;28;20104;-71
2022/06/03 13:52:36;;;;;;;0.00;0.00;;;26.60;43.80;;;;;;5060359;28;20036;-72
2022/06/03 13:55:23;;;;;;;0.32;0.17;;;26.80;44.90;;;;;;5064668;28;20029;-71
2022/06/03 13:57:53;;;;;;;1.08;0.35;;;27.00;46.80;;;;;;5066171;28;20029;-70
2022/06/03 14:00:36;;;;;;;0.10;0.10;;;26.60;45.40;;;;;;5064936;28;20099;-71
2022/06/03 14:03:04;;;;;;;0.15;0.15;;;26.90;47.00;;;;;;5066579;28;20025;-70
2022/06/03 14:05:42;;;;;;;0.08;0.00;;;27.00;46.40;;;;;;5064608;28;20029;-71
2022/06/03 14:08:13;;;;;;;0.00;0.00;;;25.90;45.50;;;;;;5066380;28;20358;-71
2022/06/03 14:11:09;;;;;;;0.00;0.00;;;26.00;47.30;;;;;;5065801;28;20024;-70
2022/06/03 14:13:56;;;;;;;0.00;0.00;;;26.00;47.70;;;;;;5063872;28;20029;-71
2022/06/03 14:16:28;;;;;;;0.00;0.00;;;26.30;47.30;;;;;;5066249;28;20032;-71
2022/06/03 14:19:09;;;;;;;0.20;0.20;;;25.90;46.70;;;;;;5065067;28;20036;-71
2022/06/03 14:21:37;;;;;;;0.00;0.00;;;25.90;47.70;;;;;;5064401;28;20057;-71
2022/06/03 14:24:18;;;;;;;0.10;0.10;;;26.10;49.70;;;;;;5066103;28;20063;-71
2022/06/03 14:26:53;;;;;;;0.00;0.00;;;25.90;48.40;;;;;;5064178;28;20081;-71
2022/06/03 14:29:26;;;;;;;0.47;0.20;;;25.80;47.80;;;;;;5066013;28;20045;-71
2022/06/03 14:31:57;;;;;;;0.10;0.10;;;25.90;48.00;;;;;;5063659;28;20494;-71
2022/06/03 14:34:46;;;;;;;0.00;0.00;;;25.80;48.50;;;;;;5063135;28;20017;-71
2022/06/03 14:37:48;;;;;;;0.40;0.13;;;25.90;49.90;;;;;;5065883;28;20028;-70